EBLG/LGG METAR and TAF weather

Enter ICAO airport designator
Station Type Date Time Source
EBLG METAR 2022/09/26 08:50 UTC NOAA

EBLG 260850Z 20015KT 9999 FEW012 BKN048 10/07 Q1003 TEMPO 22017G30KT


Station Type Date Time Source
EBLG Decoded METAR 2022/09/26 08:50 UTC NOAA

Bierset, Belgium (EBLG) 50-39N 005-27E 178M
Sep 26, 2022 - 04:50 AM EDT / 2022.09.26 0850 UTC
Wind: from the SSW (200 degrees) at 17 MPH (15 KT):0
Visibility: greater than 7 mile(s):0
Sky conditions: mostly cloudy
Temperature: 50 F (10 C)
Dew Point: 44 F (7 C)
Relative Humidity: 81%
Pressure (altimeter): 29.62 in. Hg (1003 hPa)
ob: EBLG 260850Z 20015KT 9999 FEW012 BKN048 10/07 Q1003 TEMPO 22017G30KT
cycle: 9

Station Type Date Time Source
EBLG TAF 2022/09/26 06:27 UTC NOAA

TAF EBLG 260500Z 2606/2712 21013KT 9999 SCT015 BKN035
BECMG 2606/2608 21015G25KT
TEMPO 2611/2622 4000 RA SHRA BKN007 BKN012TCU
BECMG 2620/2622 28012KT PROB40
TEMPO 2624/2704 28015G25KT 3500 SHRA BKN013CB PROB30
TEMPO 2704/2707 3000 BR BKN007 PROB30
TEMPO 2710/2712 4500 SHRA

Example: see airport list